createdAt,value
2023-05-16T00:00:00.376Z,1004.60
2023-05-16T00:01:00.416Z,1004.64
2023-05-16T00:03:04.634Z,1004.68
2023-05-16T00:04:04.749Z,1004.71
2023-05-16T00:05:57.509Z,1004.69
2023-05-16T00:06:57.533Z,1004.66
2023-05-16T00:09:01.613Z,1004.67
2023-05-16T00:10:01.628Z,1004.68
2023-05-16T00:11:54.839Z,1004.68
2023-05-16T00:12:54.819Z,1004.73
2023-05-16T00:14:58.858Z,1004.72
2023-05-16T00:15:58.885Z,1004.84
2023-05-16T00:18:02.996Z,1004.88
2023-05-16T00:19:02.992Z,1004.89
2023-05-16T00:21:07.031Z,1004.92
2023-05-16T00:22:07.060Z,1004.91
2023-05-16T00:24:11.124Z,1004.93
2023-05-16T00:25:11.157Z,1004.91
2023-05-16T00:27:04.383Z,1004.91
2023-05-16T00:28:04.376Z,1004.90
2023-05-16T00:30:08.415Z,1004.91
2023-05-16T00:31:08.503Z,1004.89
2023-05-16T00:33:12.561Z,1004.86
2023-05-16T00:34:12.605Z,1004.88
2023-05-16T00:36:05.520Z,1004.90
2023-05-16T00:37:05.550Z,1004.89
2023-05-16T00:38:58.729Z,1004.86
2023-05-16T00:39:58.761Z,1004.85
2023-05-16T00:42:02.826Z,1004.90
2023-05-16T00:43:02.852Z,1004.92
2023-05-16T00:44:56.064Z,1004.93
2023-05-16T00:45:56.214Z,1004.92
2023-05-16T00:48:00.240Z,1004.87
2023-05-16T00:49:00.161Z,1004.88
2023-05-16T00:51:04.231Z,1004.92
2023-05-16T00:52:04.251Z,1004.92
2023-05-16T00:53:57.405Z,1004.98
2023-05-16T00:54:57.436Z,1004.93
2023-05-16T00:56:50.604Z,1004.97
2023-05-16T00:57:50.625Z,1005.01
2023-05-16T00:59:43.808Z,1005.00
2023-05-16T01:00:43.803Z,1005.05
2023-05-16T01:02:47.994Z,1005.04
2023-05-16T01:03:48.086Z,1005.06
2023-05-16T01:05:40.968Z,1005.13
2023-05-16T01:06:40.974Z,1005.12
2023-05-16T01:08:34.158Z,1005.14
2023-05-16T01:09:34.148Z,1005.17
2023-05-16T01:11:27.324Z,1005.17
2023-05-16T01:12:27.333Z,1005.22
2023-05-16T01:14:31.420Z,1005.23
2023-05-16T01:15:31.418Z,1005.20
2023-05-16T01:17:24.682Z,1005.19
2023-05-16T01:18:24.599Z,1005.19
2023-05-16T01:20:28.690Z,1005.24
2023-05-16T01:21:28.687Z,1005.18
2023-05-16T01:23:21.843Z,1005.28
2023-05-16T01:24:21.866Z,1005.30
2023-05-16T01:26:14.843Z,1005.32
2023-05-16T01:27:14.873Z,1005.33
2023-05-16T01:29:18.950Z,1005.34
2023-05-16T01:30:18.962Z,1005.33
2023-05-16T01:32:12.111Z,1005.37
2023-05-16T01:33:12.172Z,1005.38
2023-05-16T01:35:05.296Z,1005.42
2023-05-16T01:36:05.332Z,1005.37
2023-05-16T01:37:58.481Z,1005.42
2023-05-16T01:38:58.508Z,1005.42
2023-05-16T01:40:51.675Z,1005.43
2023-05-16T01:41:51.695Z,1005.41
2023-05-16T01:43:44.886Z,1005.46
2023-05-16T01:44:44.891Z,1005.49
2023-05-16T01:46:38.077Z,1005.46
2023-05-16T01:47:38.110Z,1005.51
2023-05-16T01:49:42.167Z,1005.56
2023-05-16T01:50:42.156Z,1005.60
2023-05-16T01:51:42.184Z,1005.59
2023-05-16T01:52:42.226Z,1005.59
2023-05-16T01:53:42.249Z,1005.61
2023-05-16T01:54:42.282Z,1005.63
2023-05-16T01:55:42.315Z,1005.66
2023-05-16T01:56:42.347Z,1005.63
2023-05-16T01:57:42.382Z,1005.56
2023-05-16T01:58:43.531Z,1005.65
2023-05-16T01:59:42.444Z,1005.68
2023-05-16T02:00:42.557Z,1005.68
2023-05-16T02:01:42.544Z,1005.71
2023-05-16T02:02:42.642Z,1005.73
2023-05-16T02:03:42.705Z,1005.78
2023-05-16T02:04:42.608Z,1005.78
2023-05-16T02:05:42.640Z,1005.80
2023-05-16T02:06:42.676Z,1005.82
2023-05-16T02:07:42.709Z,1005.83
2023-05-16T02:08:42.739Z,1005.89
2023-05-16T02:09:42.771Z,1005.84
2023-05-16T02:10:42.812Z,1005.87
2023-05-16T02:11:42.836Z,1005.88
2023-05-16T02:12:42.876Z,1005.95
2023-05-16T02:13:42.904Z,1005.94
2023-05-16T02:14:42.936Z,1006.00
2023-05-16T02:15:42.968Z,1005.96
2023-05-16T02:16:43.063Z,1006.02
2023-05-16T02:17:43.104Z,1006.08
2023-05-16T02:18:43.116Z,1006.02
2023-05-16T02:19:43.102Z,1006.04
2023-05-16T02:20:43.207Z,1006.07
2023-05-16T02:21:43.166Z,1006.00
2023-05-16T02:22:43.197Z,1006.07
2023-05-16T02:23:43.224Z,1006.05
2023-05-16T02:24:43.258Z,1006.07
2023-05-16T02:25:43.295Z,1006.05
2023-05-16T02:26:43.335Z,1006.08
2023-05-16T02:27:43.359Z,1006.03
2023-05-16T02:28:43.388Z,1005.93
2023-05-16T02:29:43.420Z,1006.06
2023-05-16T02:30:43.509Z,1006.08
2023-05-16T02:31:43.561Z,1006.10
2023-05-16T02:32:43.564Z,1006.11
2023-05-16T02:33:43.552Z,1006.13
2023-05-16T02:34:43.590Z,1006.14
2023-05-16T02:35:43.613Z,1006.09
2023-05-16T02:36:43.654Z,1006.12
2023-05-16T02:37:43.681Z,1006.14
2023-05-16T02:38:43.709Z,1006.15
2023-05-16T02:39:43.748Z,1006.20
2023-05-16T02:40:43.781Z,1006.25
2023-05-16T02:41:43.808Z,1006.28
2023-05-16T02:42:43.855Z,1006.25
2023-05-16T02:43:46.815Z,1006.30
2023-05-16T02:44:43.900Z,1006.30
2023-05-16T02:45:43.935Z,1006.32
2023-05-16T02:46:44.066Z,1006.34
2023-05-16T02:47:44.030Z,1006.38
2023-05-16T02:48:44.080Z,1006.36
2023-05-16T02:49:44.065Z,1006.42
2023-05-16T02:50:44.097Z,1006.41
2023-05-16T02:51:44.138Z,1006.42
2023-05-16T02:52:44.157Z,1006.39
2023-05-16T02:53:44.189Z,1006.43
2023-05-16T02:54:45.357Z,1006.50
2023-05-16T02:55:44.257Z,1006.44
2023-05-16T02:56:44.282Z,1006.40
2023-05-16T02:57:44.318Z,1006.41
2023-05-16T02:58:44.348Z,1006.43
2023-05-16T02:59:44.387Z,1006.44
2023-05-16T03:00:44.414Z,1006.45
2023-05-16T03:01:44.518Z,1006.49
2023-05-16T03:02:44.529Z,1006.43
2023-05-16T03:03:44.675Z,1006.50
2023-05-16T03:04:44.557Z,1006.52
2023-05-16T03:05:44.601Z,1006.47
2023-05-16T03:06:44.650Z,1006.50
2023-05-16T03:07:44.671Z,1006.57
2023-05-16T03:08:44.675Z,1006.53
2023-05-16T03:09:44.702Z,1006.49
2023-05-16T03:10:44.732Z,1006.56
2023-05-16T03:11:44.762Z,1006.55
2023-05-16T03:12:44.813Z,1006.60
2023-05-16T03:13:44.844Z,1006.59
2023-05-16T03:14:44.860Z,1006.66
2023-05-16T03:15:44.918Z,1006.68
2023-05-16T03:16:45.045Z,1006.69
2023-05-16T03:17:45.009Z,1006.71
2023-05-16T03:18:45.054Z,1006.71
2023-05-16T03:19:45.018Z,1006.69
2023-05-16T03:20:45.055Z,1006.73
2023-05-16T03:21:45.086Z,1006.80
2023-05-16T03:22:45.121Z,1006.79
2023-05-16T03:23:45.159Z,1006.82
2023-05-16T03:24:45.222Z,1006.87
2023-05-16T03:25:45.211Z,1006.80
2023-05-16T03:26:45.245Z,1006.81
2023-05-16T03:27:45.279Z,1006.80
2023-05-16T03:28:45.306Z,1006.78
2023-05-16T03:29:45.335Z,1006.88
2023-05-16T03:30:45.390Z,1006.87
2023-05-16T03:31:45.442Z,1006.93
2023-05-16T03:32:45.471Z,1006.94
2023-05-16T03:33:45.466Z,1006.93
2023-05-16T03:34:45.497Z,1006.94
2023-05-16T03:35:45.531Z,1006.88
2023-05-16T03:36:45.563Z,1006.87
2023-05-16T03:37:45.593Z,1006.88
2023-05-16T03:38:45.625Z,1006.92
2023-05-16T03:39:45.677Z,1006.90
2023-05-16T03:40:45.697Z,1006.93
2023-05-16T03:41:45.728Z,1007.01
2023-05-16T03:42:45.749Z,1007.01
2023-05-16T03:43:45.790Z,1006.92
2023-05-16T03:44:45.817Z,1006.93
2023-05-16T03:45:45.892Z,1006.98
2023-05-16T03:46:45.883Z,1006.94
2023-05-16T03:47:45.914Z,1006.95
2023-05-16T03:48:45.940Z,1006.91
2023-05-16T03:49:45.972Z,1006.94
2023-05-16T03:50:46.005Z,1006.91
2023-05-16T03:51:46.037Z,1006.98
2023-05-16T03:52:46.082Z,1006.91
2023-05-16T03:53:46.097Z,1006.92
2023-05-16T03:54:46.147Z,1006.95
2023-05-16T03:55:48.576Z,1006.90
2023-05-16T03:56:46.190Z,1006.95
2023-05-16T03:57:46.225Z,1007.00
2023-05-16T03:58:46.261Z,1006.96
2023-05-16T03:59:46.286Z,1007.00
2023-05-16T04:00:46.319Z,1006.91
2023-05-16T04:01:46.429Z,1006.98
2023-05-16T04:02:46.435Z,1007.00
2023-05-16T04:03:46.413Z,1007.04
2023-05-16T04:04:46.445Z,1007.00
2023-05-16T04:05:46.524Z,1007.00
2023-05-16T04:06:46.512Z,1007.01
2023-05-16T04:07:46.563Z,1007.02
2023-05-16T04:08:46.582Z,1007.06
2023-05-16T04:09:46.606Z,1007.01
2023-05-16T04:10:46.650Z,1007.04
2023-05-16T04:11:46.683Z,1007.07
2023-05-16T04:12:46.696Z,1007.09
2023-05-16T04:13:46.781Z,1007.06
2023-05-16T04:14:46.761Z,1007.14
2023-05-16T04:15:46.799Z,1007.06
2023-05-16T04:16:46.857Z,1007.14
2023-05-16T04:17:46.908Z,1007.14
2023-05-16T04:18:46.918Z,1007.17
2023-05-16T04:19:46.923Z,1007.20
2023-05-16T04:20:46.951Z,1007.25
2023-05-16T04:21:46.991Z,1007.28
2023-05-16T04:22:47.019Z,1007.27
2023-05-16T04:23:47.063Z,1007.27
2023-05-16T04:24:47.080Z,1007.22
2023-05-16T04:25:47.138Z,1007.28
2023-05-16T04:26:47.142Z,1007.28
2023-05-16T04:27:47.174Z,1007.30
2023-05-16T04:28:47.206Z,1007.39
2023-05-16T04:29:47.241Z,1007.37
2023-05-16T04:30:47.270Z,1007.44
2023-05-16T04:31:47.314Z,1007.44
2023-05-16T04:32:47.357Z,1007.50
2023-05-16T04:33:47.370Z,1007.48
2023-05-16T04:34:47.402Z,1007.46
2023-05-16T04:35:47.435Z,1007.49
2023-05-16T04:36:47.459Z,1007.52
2023-05-16T04:37:47.493Z,1007.47
2023-05-16T04:38:47.528Z,1007.52
2023-05-16T04:39:47.568Z,1007.51
2023-05-16T04:40:47.594Z,1007.58
2023-05-16T04:41:47.621Z,1007.56
2023-05-16T04:42:47.652Z,1007.54
2023-05-16T04:43:47.684Z,1007.57
2023-05-16T04:44:47.728Z,1007.66
2023-05-16T04:45:47.749Z,1007.62
2023-05-16T04:46:47.833Z,1007.64
2023-05-16T04:47:47.867Z,1007.66
2023-05-16T04:48:47.841Z,1007.66
2023-05-16T04:49:47.882Z,1007.65
2023-05-16T04:50:47.904Z,1007.63
2023-05-16T04:51:47.939Z,1007.70
2023-05-16T04:52:47.972Z,1007.61
2023-05-16T04:53:48.000Z,1007.72
2023-05-16T04:56:01.480Z,1007.80
2023-05-16T04:57:01.406Z,1007.76
2023-05-16T04:59:05.485Z,1007.80
2023-05-16T05:00:05.472Z,1007.83
2023-05-16T05:02:09.585Z,1007.81
2023-05-16T05:03:09.596Z,1007.78
2023-05-16T05:05:13.670Z,1007.89
2023-05-16T05:06:13.626Z,1007.87
2023-05-16T05:08:17.639Z,1007.91
2023-05-16T05:09:17.696Z,1007.94
2023-05-16T05:11:21.741Z,1008.00
2023-05-16T05:12:21.736Z,1008.08
2023-05-16T05:14:25.775Z,1008.11
2023-05-16T05:15:26.031Z,1008.13
2023-05-16T05:17:29.893Z,1008.16
2023-05-16T05:18:30.006Z,1008.16
2023-05-16T05:20:33.898Z,1008.22
2023-05-16T05:21:33.932Z,1008.19
2023-05-16T05:23:37.989Z,1008.24
2023-05-16T05:24:37.988Z,1008.24
2023-05-16T05:26:30.960Z,1008.26
2023-05-16T05:27:30.966Z,1008.28
2023-05-16T05:29:35.006Z,1008.33
2023-05-16T05:30:35.031Z,1008.31
2023-05-16T05:32:39.203Z,1008.39
2023-05-16T05:33:39.107Z,1008.38
2023-05-16T05:35:32.049Z,1008.46
2023-05-16T05:36:32.077Z,1008.39
2023-05-16T05:38:36.135Z,1008.37
2023-05-16T05:39:36.132Z,1008.47
2023-05-16T05:41:40.185Z,1008.48
2023-05-16T05:42:40.202Z,1008.44
2023-05-16T05:44:44.275Z,1008.50
2023-05-16T05:45:44.344Z,1008.48
2023-05-16T05:47:48.344Z,1008.56
2023-05-16T05:48:48.332Z,1008.56
2023-05-16T05:50:52.466Z,1008.58
2023-05-16T05:51:52.448Z,1008.57
2023-05-16T05:53:45.415Z,1008.61
2023-05-16T05:54:45.440Z,1008.67
2023-05-16T05:56:49.520Z,1008.71
2023-05-16T05:57:49.508Z,1008.72
2023-05-16T05:59:53.545Z,1008.74
2023-05-16T06:00:53.571Z,1008.74
2023-05-16T06:02:57.678Z,1008.82
2023-05-16T06:03:58.197Z,1008.82
2023-05-16T06:05:50.620Z,1008.86
2023-05-16T06:06:50.618Z,1008.88
2023-05-16T06:08:54.687Z,1008.86
2023-05-16T06:09:54.688Z,1008.94
2023-05-16T06:11:58.720Z,1008.91
2023-05-16T06:12:58.735Z,1008.88
2023-05-16T06:15:02.771Z,1008.92
2023-05-16T06:16:02.811Z,1008.89
2023-05-16T06:18:06.907Z,1008.90
2023-05-16T06:19:06.876Z,1008.91
2023-05-16T06:21:10.900Z,1008.88
2023-05-16T06:22:10.930Z,1008.95
2023-05-16T06:24:14.988Z,1008.95
2023-05-16T06:25:14.992Z,1008.90
2023-05-16T06:27:19.046Z,1008.86
2023-05-16T06:28:19.072Z,1008.92
2023-05-16T06:30:23.113Z,1008.95
2023-05-16T06:31:23.202Z,1008.91
2023-05-16T06:33:27.186Z,1008.97
2023-05-16T06:34:27.205Z,1008.90
2023-05-16T06:36:20.156Z,1008.87
2023-05-16T06:37:20.193Z,1008.90
2023-05-16T06:39:24.249Z,1008.97
2023-05-16T06:40:24.263Z,1009.03
2023-05-16T06:42:28.349Z,1008.96
2023-05-16T06:43:28.311Z,1008.91
2023-05-16T06:45:32.376Z,1008.92
2023-05-16T06:46:32.420Z,1008.96
2023-05-16T06:48:36.415Z,1009.01
2023-05-16T06:49:36.435Z,1009.10
2023-05-16T06:51:40.475Z,1009.19
2023-05-16T06:52:40.497Z,1009.17
2023-05-16T06:54:44.560Z,1009.24
2023-05-16T06:55:44.565Z,1009.22
2023-05-16T06:57:48.597Z,1009.26
2023-05-16T06:58:48.625Z,1009.28
2023-05-16T07:00:52.726Z,1009.23
2023-05-16T07:01:52.897Z,1009.23
2023-05-16T07:03:56.888Z,1009.24
2023-05-16T07:04:56.754Z,1009.20
2023-05-16T07:07:00.872Z,1009.29
2023-05-16T07:08:00.817Z,1009.29
2023-05-16T07:10:04.872Z,1009.28
2023-05-16T07:11:04.878Z,1009.37
2023-05-16T07:13:08.977Z,1009.41
2023-05-16T07:14:08.945Z,1009.45
2023-05-16T07:16:01.897Z,1009.45
2023-05-16T07:17:02.056Z,1009.42
2023-05-16T07:19:06.047Z,1009.45
2023-05-16T07:20:05.990Z,1009.44
2023-05-16T07:22:10.049Z,1009.37
2023-05-16T07:23:10.073Z,1009.45
2023-05-16T07:25:14.127Z,1009.43
2023-05-16T07:26:14.128Z,1009.40
2023-05-16T07:28:18.199Z,1009.44
2023-05-16T07:29:18.189Z,1009.54
2023-05-16T07:31:11.496Z,1009.55
2023-05-16T07:32:11.541Z,1009.55
2023-05-16T07:34:15.400Z,1009.55
2023-05-16T07:35:15.428Z,1009.55
2023-05-16T07:37:19.499Z,1009.55
2023-05-16T07:38:19.495Z,1009.63
2023-05-16T07:40:23.559Z,1009.61
2023-05-16T07:41:23.759Z,1009.59
2023-05-16T07:43:28.393Z,1009.61
2023-05-16T07:44:27.629Z,1009.56
2023-05-16T07:46:20.620Z,1009.54
2023-05-16T07:47:20.605Z,1009.58
2023-05-16T07:49:24.660Z,1009.54
2023-05-16T07:50:24.704Z,1009.60
2023-05-16T07:52:29.287Z,1009.59
2023-05-16T07:53:29.117Z,1009.66
2023-05-16T07:55:32.978Z,1009.65
2023-05-16T07:56:32.980Z,1009.70
2023-05-16T07:58:37.065Z,1009.78
2023-05-16T07:59:37.095Z,1009.71
2023-05-16T08:01:41.072Z,1009.76
2023-05-16T08:02:41.338Z,1009.73
2023-05-16T08:04:45.139Z,1009.75
2023-05-16T08:05:45.325Z,1009.80
2023-05-16T08:07:49.196Z,1009.75
2023-05-16T08:08:49.246Z,1009.75
2023-05-16T08:10:53.272Z,1009.84
2023-05-16T08:11:53.303Z,1009.82
2023-05-16T08:13:57.337Z,1009.89
2023-05-16T08:14:57.360Z,1009.87
2023-05-16T08:17:01.429Z,1009.93
2023-05-16T08:18:01.498Z,1009.96
2023-05-16T08:20:05.458Z,1010.03
2023-05-16T08:21:05.487Z,1010.08
2023-05-16T08:23:09.530Z,1010.05
2023-05-16T08:24:09.549Z,1010.11
2023-05-16T08:26:02.619Z,1010.09
2023-05-16T08:27:02.883Z,1010.10
2023-05-16T08:29:06.691Z,1010.08
2023-05-16T08:30:06.714Z,1010.06
2023-05-16T08:32:10.751Z,1010.10
2023-05-16T08:33:10.891Z,1010.11
2023-05-16T08:35:14.840Z,1010.14
2023-05-16T08:36:14.846Z,1010.13
2023-05-16T08:38:18.908Z,1010.17
2023-05-16T08:39:18.914Z,1010.15
2023-05-16T08:40:18.939Z,1010.14
2023-05-16T08:41:18.982Z,1010.17
2023-05-16T08:42:19.007Z,1010.17
2023-05-16T08:43:19.040Z,1010.17
2023-05-16T08:44:19.182Z,1010.20
2023-05-16T08:45:19.121Z,1010.25
2023-05-16T08:46:19.191Z,1010.22
2023-05-16T08:47:19.362Z,1010.21
2023-05-16T08:48:19.369Z,1010.22
2023-05-16T08:49:19.240Z,1010.26
2023-05-16T08:50:19.295Z,1010.22
2023-05-16T08:51:19.308Z,1010.14
2023-05-16T08:52:19.348Z,1010.25
2023-05-16T08:53:19.382Z,1010.23
2023-05-16T08:54:19.419Z,1010.15
2023-05-16T08:55:19.435Z,1010.18
2023-05-16T08:56:19.470Z,1010.15
2023-05-16T08:57:19.508Z,1010.18
2023-05-16T08:58:19.534Z,1010.15
2023-05-16T08:59:19.577Z,1010.16
2023-05-16T09:00:19.638Z,1010.17
2023-05-16T09:01:19.677Z,1010.19
2023-05-16T09:02:19.681Z,1010.13
2023-05-16T09:03:19.745Z,1010.15
2023-05-16T09:04:19.887Z,1010.12
2023-05-16T09:05:19.762Z,1010.11
2023-05-16T09:06:19.798Z,1010.09
2023-05-16T09:07:19.831Z,1010.08
2023-05-16T09:08:19.859Z,1010.12
2023-05-16T09:09:19.927Z,1010.16
2023-05-16T09:10:19.928Z,1010.05
2023-05-16T09:11:19.960Z,1010.09
2023-05-16T09:12:19.992Z,1010.07
2023-05-16T09:13:20.040Z,1010.11
2023-05-16T09:14:20.057Z,1010.13
2023-05-16T09:15:20.103Z,1010.10
2023-05-16T09:16:20.226Z,1010.12
2023-05-16T09:17:25.703Z,1010.11
2023-05-16T09:18:20.253Z,1010.16
2023-05-16T09:19:20.255Z,1010.17
2023-05-16T09:20:20.360Z,1010.24
2023-05-16T09:21:20.286Z,1010.14
2023-05-16T09:22:20.316Z,1010.25
2023-05-16T09:23:20.352Z,1010.23
2023-05-16T09:24:20.381Z,1010.21
2023-05-16T09:25:29.600Z,1010.31
2023-05-16T09:26:20.449Z,1010.35
2023-05-16T09:27:20.490Z,1010.40
2023-05-16T09:28:20.588Z,1010.38
2023-05-16T09:29:20.561Z,1010.38
2023-05-16T09:30:20.578Z,1010.32
2023-05-16T09:31:20.728Z,1010.28
2023-05-16T09:32:20.653Z,1010.32
2023-05-16T09:33:20.680Z,1010.30
2023-05-16T09:34:20.711Z,1010.27
2023-05-16T09:35:34.964Z,1010.25
2023-05-16T09:36:20.791Z,1010.32
2023-05-16T09:37:20.806Z,1010.26
2023-05-16T09:38:20.852Z,1010.33
2023-05-16T09:39:20.874Z,1010.29
2023-05-16T09:40:20.905Z,1010.38
2023-05-16T09:41:20.939Z,1010.31
2023-05-16T09:42:21.079Z,1010.39
2023-05-16T09:43:21.008Z,1010.35
2023-05-16T09:44:21.038Z,1010.40
2023-05-16T09:45:21.080Z,1010.40
2023-05-16T09:46:21.139Z,1010.40
2023-05-16T09:47:21.139Z,1010.39
2023-05-16T09:48:21.214Z,1010.40
2023-05-16T09:49:21.211Z,1010.46
2023-05-16T09:50:21.232Z,1010.49
2023-05-16T09:51:21.267Z,1010.49
2023-05-16T09:52:21.297Z,1010.55
2023-05-16T09:53:21.333Z,1010.62
2023-05-16T09:54:21.360Z,1010.57
2023-05-16T09:55:21.396Z,1010.61
2023-05-16T09:56:21.429Z,1010.65
2023-05-16T09:57:21.465Z,1010.66
2023-05-16T09:58:21.505Z,1010.62
2023-05-16T09:59:21.529Z,1010.68
2023-05-16T10:00:21.580Z,1010.68
2023-05-16T10:01:21.648Z,1010.72
2023-05-16T10:02:21.768Z,1010.71
2023-05-16T10:03:21.715Z,1010.64
2023-05-16T10:04:21.783Z,1010.72
2023-05-16T10:05:21.732Z,1010.74
2023-05-16T10:06:21.777Z,1010.73
2023-05-16T10:07:21.789Z,1010.74
2023-05-16T10:08:21.820Z,1010.74
2023-05-16T10:09:21.858Z,1010.75
2023-05-16T10:10:21.900Z,1010.67
2023-05-16T10:11:21.939Z,1010.72
2023-05-16T10:12:21.957Z,1010.70
2023-05-16T10:13:21.990Z,1010.67
2023-05-16T10:14:22.015Z,1010.65
2023-05-16T10:15:22.056Z,1010.67
2023-05-16T10:16:22.162Z,1010.72
2023-05-16T10:17:22.120Z,1010.75
2023-05-16T10:18:22.153Z,1010.66
2023-05-16T10:19:22.211Z,1010.66
2023-05-16T10:20:22.417Z,1010.67
2023-05-16T10:21:22.260Z,1010.67
2023-05-16T10:22:22.287Z,1010.69
2023-05-16T10:23:22.311Z,1010.70
2023-05-16T10:24:22.340Z,1010.68
2023-05-16T10:25:22.382Z,1010.69
2023-05-16T10:26:22.406Z,1010.66
2023-05-16T10:27:22.440Z,1010.72
2023-05-16T10:28:22.479Z,1010.61
2023-05-16T10:29:22.509Z,1010.72
2023-05-16T10:30:22.540Z,1010.65
2023-05-16T10:31:22.706Z,1010.66
2023-05-16T10:32:22.681Z,1010.67
2023-05-16T10:33:22.700Z,1010.67
2023-05-16T10:34:22.669Z,1010.69
2023-05-16T10:35:22.705Z,1010.67
2023-05-16T10:36:22.737Z,1010.70
2023-05-16T10:37:22.768Z,1010.66
2023-05-16T10:38:22.797Z,1010.76
2023-05-16T10:39:22.830Z,1010.75
2023-05-16T10:40:22.882Z,1010.70
2023-05-16T10:41:22.896Z,1010.69
2023-05-16T10:42:22.934Z,1010.69
2023-05-16T10:43:22.965Z,1010.68
2023-05-16T10:44:22.995Z,1010.74
2023-05-16T10:45:23.030Z,1010.74
2023-05-16T10:46:23.106Z,1010.85
2023-05-16T10:47:23.166Z,1010.83
2023-05-16T10:48:23.269Z,1010.87
2023-05-16T10:49:23.884Z,1010.85
2023-05-16T10:50:23.195Z,1010.89
2023-05-16T10:51:23.230Z,1010.95
2023-05-16T10:52:23.555Z,1010.98
2023-05-16T10:53:23.307Z,1010.98
2023-05-16T10:54:23.322Z,1011.12
2023-05-16T10:55:30.551Z,1010.99
2023-05-16T10:57:27.408Z,1010.97
2023-05-16T10:58:27.433Z,1010.96
2023-05-16T11:00:32.058Z,1010.92
2023-05-16T11:01:31.756Z,1010.87
2023-05-16T11:03:35.990Z,1010.77
2023-05-16T11:04:35.766Z,1010.84
2023-05-16T11:06:28.721Z,1010.83
2023-05-16T11:07:28.769Z,1010.85
2023-05-16T11:09:32.926Z,1010.80
2023-05-16T11:10:32.865Z,1010.89
2023-05-16T11:12:25.991Z,1010.84
2023-05-16T11:13:26.023Z,1010.82
2023-05-16T11:15:30.605Z,1010.88
2023-05-16T11:16:30.453Z,1010.93
2023-05-16T11:18:35.159Z,1011.00
2023-05-16T11:19:34.680Z,1010.98
2023-05-16T11:21:38.735Z,1010.92
2023-05-16T11:22:38.782Z,1010.96
2023-05-16T11:24:42.805Z,1010.96
2023-05-16T11:25:42.854Z,1011.02
2023-05-16T11:27:46.917Z,1011.05
2023-05-16T11:28:46.910Z,1011.02
2023-05-16T11:30:50.980Z,1010.98
2023-05-16T11:31:51.183Z,1011.13
2023-05-16T11:33:55.033Z,1011.17
2023-05-16T11:34:55.060Z,1011.13
2023-05-16T11:36:48.020Z,1011.05
2023-05-16T11:37:48.097Z,1011.04
2023-05-16T11:39:52.120Z,1011.08
2023-05-16T11:40:52.117Z,1010.94
2023-05-16T11:42:45.270Z,1010.99
2023-05-16T11:43:45.302Z,1011.02
2023-05-16T11:45:49.343Z,1011.03
2023-05-16T11:46:49.433Z,1011.03
2023-05-16T11:48:53.428Z,1011.09
2023-05-16T11:49:53.457Z,1011.04
2023-05-16T11:51:46.522Z,1011.08
2023-05-16T11:52:46.523Z,1011.07
2023-05-16T11:53:46.666Z,1011.07
2023-05-16T11:54:46.591Z,1010.99
2023-05-16T11:55:48.381Z,1011.10
2023-05-16T11:56:46.650Z,1011.06
2023-05-16T11:57:46.695Z,1011.06
2023-05-16T11:58:46.725Z,1011.08
2023-05-16T11:59:46.752Z,1011.06
2023-05-16T12:00:46.786Z,1011.05
2023-05-16T12:01:46.840Z,1011.07
2023-05-16T12:02:46.924Z,1011.15
2023-05-16T12:03:47.257Z,1011.17
2023-05-16T12:04:47.009Z,1011.15
2023-05-16T12:05:47.026Z,1011.11
2023-05-16T12:06:46.989Z,1011.15
2023-05-16T12:07:47.015Z,1011.09
2023-05-16T12:08:47.067Z,1011.08
2023-05-16T12:09:47.129Z,1011.09
2023-05-16T12:10:47.117Z,1011.07
2023-05-16T12:11:47.151Z,1011.05
2023-05-16T12:12:47.217Z,1011.07
2023-05-16T12:13:47.248Z,1011.03
2023-05-16T12:14:47.276Z,1011.06
2023-05-16T12:15:47.284Z,1011.06
2023-05-16T12:16:47.417Z,1011.04
2023-05-16T12:17:47.435Z,1011.08
2023-05-16T12:18:47.404Z,1011.08
2023-05-16T12:19:47.461Z,1011.06
2023-05-16T12:20:47.453Z,1010.94
2023-05-16T12:21:47.497Z,1011.05
2023-05-16T12:22:47.520Z,1011.11
2023-05-16T12:23:47.559Z,1011.04
2023-05-16T12:24:47.588Z,1011.03
2023-05-16T12:25:47.816Z,1011.02
2023-05-16T12:26:47.656Z,1011.02
2023-05-16T12:27:47.695Z,1011.06
2023-05-16T12:28:47.719Z,1011.00
2023-05-16T12:29:47.762Z,1011.00
2023-05-16T12:30:47.883Z,1011.05
2023-05-16T12:31:47.830Z,1011.10
2023-05-16T12:32:47.943Z,1011.13
2023-05-16T12:33:47.908Z,1011.09
2023-05-16T12:34:47.925Z,1011.11
2023-05-16T12:35:48.062Z,1011.08
2023-05-16T12:36:47.993Z,1011.09
2023-05-16T12:37:48.029Z,1011.14
2023-05-16T12:38:48.057Z,1011.19
2023-05-16T12:39:48.092Z,1011.20
2023-05-16T12:40:48.129Z,1011.20
2023-05-16T12:41:48.160Z,1011.16
2023-05-16T12:42:48.192Z,1011.14
2023-05-16T12:43:48.228Z,1011.23
2023-05-16T12:44:48.263Z,1011.25
2023-05-16T12:45:48.393Z,1011.28
2023-05-16T12:46:48.407Z,1011.30
2023-05-16T12:47:48.395Z,1011.28
2023-05-16T12:48:48.426Z,1011.36
2023-05-16T12:49:48.436Z,1011.36
2023-05-16T12:50:48.468Z,1011.34
2023-05-16T12:51:48.505Z,1011.45
2023-05-16T12:52:48.531Z,1011.41
2023-05-16T12:54:01.589Z,1011.42
2023-05-16T12:54:48.596Z,1011.35
2023-05-16T12:55:48.648Z,1011.31
2023-05-16T12:56:48.676Z,1011.30
2023-05-16T12:57:48.785Z,1011.28
2023-05-16T12:58:48.743Z,1011.31
2023-05-16T12:59:48.832Z,1011.28
2023-05-16T13:00:48.810Z,1011.25
2023-05-16T13:01:48.997Z,1011.26
2023-05-16T13:02:49.170Z,1011.24
2023-05-16T13:03:48.984Z,1011.17
2023-05-16T13:04:48.939Z,1011.16
2023-05-16T13:05:48.989Z,1011.17
2023-05-16T13:06:59.088Z,1011.18
2023-05-16T13:07:49.045Z,1011.15
2023-05-16T13:08:49.077Z,1011.13
2023-05-16T13:09:49.114Z,1011.14
2023-05-16T13:10:49.144Z,1011.10
2023-05-16T13:11:49.181Z,1011.11
2023-05-16T13:12:49.221Z,1011.12
2023-05-16T13:13:49.388Z,1011.13
2023-05-16T13:14:49.283Z,1011.11
2023-05-16T13:15:49.341Z,1011.19
2023-05-16T13:16:49.351Z,1011.12
2023-05-16T13:17:49.444Z,1011.13
2023-05-16T13:18:49.480Z,1011.11
2023-05-16T13:19:49.453Z,1011.10
2023-05-16T13:20:49.495Z,1011.07
2023-05-16T13:21:49.525Z,1011.09
2023-05-16T13:22:49.556Z,1011.05
2023-05-16T13:23:49.593Z,1011.05
2023-05-16T13:24:49.625Z,1011.12
2023-05-16T13:25:49.772Z,1011.08
2023-05-16T13:26:49.699Z,1011.08
2023-05-16T13:27:49.737Z,1011.04
2023-05-16T13:28:49.764Z,1011.05
2023-05-16T13:29:49.950Z,1011.08
2023-05-16T13:30:49.840Z,1011.05
2023-05-16T13:31:49.880Z,1011.03
2023-05-16T13:32:49.966Z,1011.04
2023-05-16T13:33:49.937Z,1010.98
2023-05-16T13:34:49.974Z,1010.96
2023-05-16T13:35:50.012Z,1010.95
2023-05-16T13:36:54.263Z,1010.99
2023-05-16T13:37:50.081Z,1010.99
2023-05-16T13:38:50.117Z,1011.05
2023-05-16T13:39:50.147Z,1011.03
2023-05-16T13:40:50.184Z,1011.10
2023-05-16T13:41:50.220Z,1011.08
2023-05-16T13:42:50.249Z,1011.02
2023-05-16T13:43:50.284Z,1011.04
2023-05-16T13:44:50.334Z,1011.08
2023-05-16T13:45:50.482Z,1011.14
2023-05-16T13:46:50.401Z,1011.10
2023-05-16T13:47:50.459Z,1011.09
2023-05-16T13:48:50.463Z,1011.15
2023-05-16T13:49:50.499Z,1011.18
2023-05-16T13:50:50.536Z,1011.16
2023-05-16T13:51:50.565Z,1011.15
2023-05-16T13:52:50.627Z,1011.13
2023-05-16T13:53:50.633Z,1011.25
2023-05-16T13:54:50.670Z,1011.20
2023-05-16T13:55:50.706Z,1011.25
2023-05-16T13:56:50.756Z,1011.20
2023-05-16T13:57:50.777Z,1011.16
2023-05-16T13:59:02.065Z,1011.16
2023-05-16T14:00:51.151Z,1011.28
2023-05-16T14:01:51.131Z,1011.23
2023-05-16T14:02:50.973Z,1011.25
2023-05-16T14:03:51.170Z,1011.22
2023-05-16T14:04:51.033Z,1011.22
2023-05-16T14:05:51.056Z,1011.24
2023-05-16T14:06:51.177Z,1011.21
2023-05-16T14:07:51.125Z,1011.24
2023-05-16T14:08:51.158Z,1011.18
2023-05-16T14:09:51.194Z,1011.16
2023-05-16T14:10:51.232Z,1011.22
2023-05-16T14:11:51.415Z,1011.21
2023-05-16T14:12:52.001Z,1011.16
2023-05-16T14:13:51.335Z,1011.17
2023-05-16T14:14:51.372Z,1011.27
2023-05-16T14:15:51.422Z,1011.26
2023-05-16T14:16:51.640Z,1011.24
2023-05-16T14:17:51.931Z,1011.25
2023-05-16T14:18:51.584Z,1011.18